Airfield :
LOGIN :

Register | Disclaimer

   EN    FR    IT 

 










Legend :    VFR   Marginal VFR   IFR   Intensive IFR   Very Intensive IFR
Visi :
Ceiling :
>= 8 km
>= 3000ft
5 to 8 km
1000 to 3000 ft
1500m to 5 km
500 to 1000 ft
800 to 1500m
200 to 500 ft
< 800m
< 200 ft
Symbols :   Thunderstorms  Fog  Heavy snow  Heavy precipitations  Wind > 20 kt
SIGMETs :     Misc.  Thunderstorms  Icing  Turbulence  Mountain Waves  Volcanic Ashes






- Airport Elevation : 1300 ft
- IATA code : LIG


LFBL - Limoges

CURRENT METAR :
  • 150630Z AUTO 25008KT 220V280 9999 -RA BKN005/// OVC011/// ///TCU 10/09 Q1010 BECMG SCT020 SCT040

EXPIRED METARs :
  • 150600Z AUTO 24006KT 210V270 9000 -RA BKN007/// BKN013/// BKN019/// ///TCU 10/10 Q1010 BECMG SCT020 SCT040
  • 150530Z AUTO 24006KT 9999 -RA SCT008/// SCT020/// BKN058/// ///TCU 10/10 Q1010 BECMG SCT020 SCT040
  • 150500Z AUTO 24008KT 210V270 9000 -RA SCT009/// BKN017/// BKN029/// ///TCU 10/10 Q1009 TEMPO 4000 RA BKN003 OVC010
  • 150430Z AUTO 23009KT 200V270 9999 -RA OVC006 11/11 Q1009 TEMPO 4000 RA BKN003 OVC010
  • 150400Z AUTO 23011KT 9999 -RA OVC007 11/10 Q1009 TEMPO 4000 RA BKN003 OVC010

TAF AMD TAF LFBL
Valid from the 15 at 06:00 until the 16 at 06:00 UTC


150642Z 1506/1606 23010KT 9999 -RA OVC007
TEMPO 1506/1509 4000 RA OVC004
BECMG 1509/1511 NSW BKN018TCU
PROB40
TEMPO 1511/1515 27020KT 4000 SHRA
BECMG 1515/1517 18006KT BKN040
TEMPO 1523/1604 BKN006
ATIS : +33 5 55 48 40 37



MET'MAP, your aeronautical weather chart ! - Copyright ORBIFLY December 2007 - Disclaimer

ORBIFLY MET'MAP TEAM :

Programming & Development : Alexandra Zaïnal
Concept & Development : Baudouin d'Aumeries
Co-Development & Prog : Marc-Olivier Méhu
Technical & hardware support : Manuel Goepfert

Contact : metmap@orbifly.com




SOURCES & CREDITS :

   NOAA